Time;durP1;ratioP1;P1;durP2;ratioP2;P2;SDS_P1;SDS_P2;PMS_P1;PMS_P2;Temp;Humidity;BMP_temperature;BMP_pressure;BME280_temperature;BME280_humidity;BME280_pressure;Samples;Min_cycle;Max_cycle;Signal;HPM_P1;HPM_P2
2020/12/02 00:00:18;;;;;;;;;27.00;26.33;;;;;2.89;74.40;102385.06;4375089;32;8914;-87
2020/12/02 00:03:24;;;;;;;;;18.67;18.67;;;;;2.92;74.21;102374.50;4363636;32;8941;-87
2020/12/02 00:06:21;;;;;;;;;20.67;20.67;;;;;2.95;73.81;102393.16;4365414;32;9080;-88
2020/12/02 00:09:21;;;;;;;;;22.33;22.33;;;;;3.06;73.22;102386.84;4352008;32;9015;-88
2020/12/02 00:12:17;;;;;;;;;26.00;21.00;;;;;2.63;74.19;102383.66;4351862;33;8898;-88
2020/12/02 00:14:45;;;;;;;;;28.50;23.75;;;;;2.73;74.38;102383.88;4347772;33;9548;-87
2020/12/02 00:17:40;;;;;;;;;26.00;26.00;;;;;2.86;74.25;102385.56;4349417;33;12474;-86
2020/12/02 00:20:36;;;;;;;;;23.50;23.25;;;;;2.96;73.97;102392.09;4360504;32;12351;-87
2020/12/02 00:23:32;;;;;;;;;24.75;23.00;;;;;2.84;74.07;102385.81;4349054;32;12341;-87
2020/12/02 00:26:28;;;;;;;;;20.50;20.50;;;;;2.73;73.67;102383.88;4360221;32;12318;-86
2020/12/02 00:29:24;;;;;;;;;22.33;20.67;;;;;2.68;74.34;102383.75;4350951;32;12352;-89
2020/12/02 00:32:28;;;;;;;;;29.67;27.00;;;;;2.50;74.84;102382.78;4363387;32;9045;-87
2020/12/02 00:34:57;;;;;;;;;28.00;28.00;;;;;2.68;74.76;102387.31;4358268;32;8912;-87
2020/12/02 00:37:38;;;;;;;;;22.00;21.33;;;;;2.61;75.21;102386.63;4348644;33;8912;-88
2020/12/02 00:40:35;;;;;;;;;20.00;19.33;;;;;2.74;74.80;102378.19;4354554;32;8903;-86
2020/12/02 00:43:31;;;;;;;;;26.33;25.33;;;;;2.51;75.44;102379.00;4373183;32;8938;-85
2020/12/02 00:46:27;;;;;;;;;26.00;24.00;;;;;2.53;75.27;102384.25;4363891;32;8899;-86
2020/12/02 00:49:22;;;;;;;;;22.33;22.33;;;;;2.75;74.91;102389.94;4363461;32;8907;-85
2020/12/02 00:52:18;;;;;;;;;21.67;20.67;;;;;2.71;74.74;102381.41;4364256;32;8903;-87
2020/12/02 00:55:14;;;;;;;;;18.67;18.67;;;;;2.64;74.42;102380.69;4363408;32;8937;-87
2020/12/02 00:57:51;;;;;;;;;24.67;24.67;;;;;2.40;74.71;102381.72;4362805;32;9062;-85
2020/12/02 01:00:47;;;;;;;;;24.33;23.00;;;;;2.36;74.92;102375.06;4349483;32;12354;-85
2020/12/02 01:03:46;;;;;;;;;23.67;23.67;;;;;2.64;74.35;102375.22;4348752;32;8945;-85
2020/12/02 01:06:45;;;;;;;;;24.00;24.00;;;;;2.76;73.73;102375.19;4358587;32;12381;-86
2020/12/02 01:09:41;;;;;;;;;31.00;31.00;;;;;2.77;73.57;102379.63;4358606;32;12565;-85
2020/12/02 01:12:38;;;;;;;;;25.00;25.00;;;;;2.95;73.40;102378.66;4358605;32;8883;-87
2020/12/02 01:15:34;;;;;;;;;21.67;21.33;;;;;2.55;74.12;102376.63;4359479;32;12430;-87
2020/12/02 01:18:24;;;;;;;;;25.33;25.33;;;;;2.79;73.19;102378.31;4358968;32;12304;-83
2020/12/02 01:21:50;;;;;;;;;25.33;24.67;;;;;2.63;74.04;102378.19;4347958;32;8934;-87
2020/12/02 01:25:01;;;;;;;;;25.33;24.33;;;;;2.60;74.13;102375.91;4363807;32;8896;-86
2020/12/02 01:27:45;;;;;;;;;23.33;23.00;;;;;2.63;74.16;102372.72;4356495;32;8904;-85
2020/12/02 01:30:42;;;;;;;;;20.00;17.67;;;;;2.62;73.98;102366.44;4349027;32;12365;-86
2020/12/02 01:33:37;;;;;;;;;33.33;30.67;;;;;2.61;73.73;102362.03;4349094;33;9601;-86
2020/12/02 01:36:56;;;;;;;;;26.67;26.67;;;;;2.62;73.87;102363.72;4355047;32;8961;-86
2020/12/02 01:39:56;;;;;;;;;23.33;23.00;;;;;2.77;73.26;102360.50;4343708;32;9568;-87
2020/12/02 01:43:00;;;;;;;;;21.67;21.67;;;;;2.73;72.89;102371.06;4359717;32;9029;-88
2020/12/02 01:45:54;;;;;;;;;26.00;24.67;;;;;2.48;73.34;102363.09;4364063;32;8973;-85
2020/12/02 01:49:14;;;;;;;;;33.00;31.67;;;;;2.43;73.08;102364.84;4347969;33;8955;-87
2020/12/02 01:52:04;;;;;;;;;31.00;28.33;;;;;2.52;73.24;102363.44;4363887;32;8894;-86
2020/12/02 01:54:50;;;;;;;;;24.33;20.00;;;;;2.44;73.30;102359.16;4365694;32;8878;-88
2020/12/02 01:57:50;;;;;;;;;16.67;16.67;;;;;2.54;72.69;102366.78;4351301;32;8952;-87
2020/12/02 02:00:56;;;;;;;;;23.33;23.33;;;;;2.46;72.65;102372.59;4359736;32;8905;-88
2020/12/02 02:03:25;;;;;;;;;24.00;24.00;;;;;2.33;73.18;102364.63;4346976;33;8915;-86
2020/12/02 02:06:31;;;;;;;;;34.67;33.00;;;;;2.67;72.56;102369.28;4348290;32;8979;-86
2020/12/02 02:09:28;;;;;;;;;28.00;28.00;;;;;2.75;72.38;102370.81;4348439;33;8913;-87
2020/12/02 02:12:23;;;;;;;;;29.67;26.33;;;;;2.82;72.35;102374.25;4348595;32;8932;-84
2020/12/02 02:15:34;;;;;;;;;26.67;26.33;;;;;2.92;71.68;102379.16;4358723;32;8999;-84
2020/12/02 02:18:30;;;;;;;;;27.33;27.33;;;;;2.97;71.53;102382.81;4361172;32;9014;-84
2020/12/02 02:21:06;;;;;;;;;35.00;33.33;;;;;3.02;71.59;102380.19;4348182;33;8927;-87
2020/12/02 02:23:55;;;;;;;;;54.00;47.67;;;;;2.94;71.92;102374.28;4348344;32;8966;-87
2020/12/02 02:26:39;;;;;;;;;37.00;36.00;;;;;3.06;70.93;102378.63;4334961;32;8912;-84
2020/12/02 02:29:39;;;;;;;;;26.00;21.67;;;;;2.80;70.91;102379.13;4362429;32;9563;-84
2020/12/02 02:32:36;;;;;;;;;30.67;28.00;;;;;2.93;70.88;102378.06;4349148;33;8960;-86
2020/12/02 02:35:32;;;;;;;;;29.00;27.00;;;;;2.99;70.52;102379.84;4347955;33;12431;-85
2020/12/02 02:38:29;;;;;;;;;35.67;30.33;;;;;2.94;70.34;102387.94;4348495;33;12363;-86
2020/12/02 02:40:56;;;;;;;;;29.33;28.67;;;;;2.95;70.86;102378.66;4345594;33;8979;-87
2020/12/02 02:43:38;;;;;;;;;24.67;24.67;;;;;2.90;71.12;102378.53;4359361;32;8910;-87
2020/12/02 02:46:07;;;;;;;;;35.33;30.00;;;;;2.94;71.11;102380.56;4361303;32;8894;-87
2020/12/02 02:49:04;;;;;;;;;29.00;26.33;;;;;2.97;70.99;102379.25;4373116;32;8899;-87
2020/12/02 02:51:33;;;;;;;;;29.00;29.00;;;;;2.91;71.31;102372.81;4360358;32;8962;-87
2020/12/02 02:54:14;;;;;;;;;40.00;32.33;;;;;2.96;71.08;102372.13;4354494;32;8880;-85
2020/12/02 02:57:10;;;;;;;;;33.00;33.00;;;;;2.58;71.94;102386.25;4359752;32;9008;-87
2020/12/02 03:00:08;;;;;;;;;30.00;29.00;;;;;2.71;71.78;102380.56;4348538;33;8910;-87
2020/12/02 03:02:36;;;;;;;;;23.67;20.67;;;;;2.73;71.74;102382.00;4355939;32;9571;-87
2020/12/02 03:05:26;;;;;;;;;28.33;26.33;;;;;2.37;71.93;102382.19;4353481;33;8892;-86
2020/12/02 03:07:57;;;;;;;;;26.00;26.00;;;;;2.56;71.85;102381.03;4349385;33;9565;-86
2020/12/02 03:10:56;;;;;;;;;20.00;18.67;;;;;2.83;70.70;102384.12;4350686;33;8959;-86
2020/12/02 03:13:40;;;;;;;;;39.00;34.67;;;;;2.60;71.12;102393.13;4358127;32;8887;-87
2020/12/02 03:16:43;;;;;;;;;32.33;30.00;;;;;2.68;71.00;102389.22;4374820;32;8911;-87
2020/12/02 03:19:49;;;;;;;;;32.67;30.00;;;;;2.95;70.46;102390.44;4375488;32;8904;-87
2020/12/02 03:22:45;;;;;;;;;28.33;27.33;;;;;3.01;70.20;102392.22;4377557;32;8980;-85
2020/12/02 03:25:43;;;;;;;;;27.00;27.00;;;;;2.88;70.61;102392.44;4374633;32;8938;-87
2020/12/02 03:28:28;;;;;;;;;31.33;26.67;;;;;2.46;70.68;102389.81;4363180;32;9678;-86
2020/12/02 03:31:00;;;;;;;;;36.00;28.67;;;;;2.57;71.03;102392.78;4351389;32;8964;-86
2020/12/02 03:33:28;;;;;;;;;30.67;30.67;;;;;2.77;70.27;102390.56;4376085;32;8909;-85
2020/12/02 03:36:13;;;;;;;;;23.33;20.33;;;;;2.85;70.73;102383.91;4363619;32;8906;-86
2020/12/02 03:39:11;;;;;;;;;23.33;23.33;;;;;2.79;70.90;102396.59;4364501;32;9004;-85
2020/12/02 03:42:07;;;;;;;;;27.00;25.00;;;;;2.30;72.27;102397.84;4364332;32;9024;-86
2020/12/02 03:45:05;;;;;;;;;30.00;27.00;;;;;2.39;72.31;102404.66;4365888;32;8911;-85
2020/12/02 03:48:01;;;;;;;;;30.00;27.00;;;;;2.69;71.70;102393.66;4376858;32;8950;-86
2020/12/02 03:50:57;;;;;;;;;42.33;38.33;;;;;2.85;71.01;102403.88;4375080;32;8997;-85
2020/12/02 03:53:53;;;;;;;;;30.00;30.00;;;;;2.86;71.08;102404.69;4359896;33;8958;-86
2020/12/02 03:56:48;;;;;;;;;35.00;32.00;;;;;2.66;71.39;102408.59;4349705;32;8932;-85
2020/12/02 03:59:44;;;;;;;;;33.33;33.33;;;;;2.85;71.25;102414.78;4359994;32;8906;-85
2020/12/02 04:02:40;;;;;;;;;27.33;27.33;;;;;2.78;71.02;102411.34;4362908;32;9096;-87
2020/12/02 04:05:35;;;;;;;;;27.00;26.33;;;;;2.51;71.48;102421.88;4365230;32;8904;-87
2020/12/02 04:08:31;;;;;;;;;65.33;53.33;;;;;2.62;71.52;102426.53;4365478;32;8947;-86
2020/12/02 04:11:04;;;;;;;;;47.00;42.33;;;;;2.51;71.65;102417.25;4363338;32;8968;-85
2020/12/02 04:14:00;;;;;;;;;42.00;40.00;;;;;2.51;71.38;102421.88;4354433;32;8905;-86
2020/12/02 04:16:56;;;;;;;;;45.33;44.00;;;;;2.45;71.98;102422.81;4356922;32;8955;-86
2020/12/02 04:19:52;;;;;;;;;31.33;29.00;;;;;2.56;71.33;102435.66;4349896;32;8950;-86
2020/12/02 04:22:49;;;;;;;;;31.00;31.00;;;;;2.40;71.54;102426.25;4359226;32;8903;-84
2020/12/02 04:25:45;;;;;;;;;30.33;28.33;;;;;2.61;70.90;102438.53;4359381;32;8922;-86
2020/12/02 04:28:40;;;;;;;;;33.00;33.00;;;;;2.49;71.00;102430.31;4349237;33;8911;-85
2020/12/02 04:31:36;;;;;;;;;34.33;29.33;;;;;2.77;70.81;102432.38;4366162;32;8899;-85
2020/12/02 04:34:03;;;;;;;;;30.33;30.00;;;;;2.63;70.93;102428.19;4361911;32;8932;-85
2020/12/02 04:36:59;;;;;;;;;33.33;33.33;;;;;2.62;70.71;102425.72;4349582;33;8983;-86
2020/12/02 04:39:55;;;;;;;;;41.33;40.33;;;;;2.60;70.84;102419.63;4349018;33;8910;-85
2020/12/02 04:42:33;;;;;;;;;53.33;46.67;;;;;2.77;70.42;102420.63;4347058;32;8896;-84
2020/12/02 04:45:32;;;;;;;;;36.00;36.00;;;;;2.74;70.42;102427.38;4349523;32;8890;-85
2020/12/02 04:48:30;;;;;;;;;33.00;32.67;;;;;2.79;70.26;102421.19;4349971;32;8921;-85
2020/12/02 04:51:19;;;;;;;;;37.33;36.00;;;;;2.78;69.94;102425.00;4350820;32;9007;-85
2020/12/02 04:54:15;;;;;;;;;39.00;38.00;;;;;2.71;70.40;102418.81;4359120;32;8971;-86
2020/12/02 04:57:10;;;;;;;;;33.00;32.00;;;;;2.33;71.41;102421.97;4360358;32;8940;-83
2020/12/02 05:00:45;;;;;;;;;42.00;37.00;;;;;2.32;71.48;102429.31;4361340;32;8965;-85
2020/12/02 05:04:07;;;;;;;;;43.33;39.00;;;;;2.41;71.20;102413.44;4289133;33;8987;-85
2020/12/02 05:07:14;;;;;;;;;31.67;30.33;;;;;2.49;71.22;102434.94;4301304;33;8948;-85
2020/12/02 05:10:12;;;;;;;;;33.00;32.33;;;;;2.67;70.29;102442.19;4357613;32;8906;-85
2020/12/02 05:13:09;;;;;;;;;21.33;20.67;;;;;2.81;70.25;102451.03;4377293;32;8918;-86
2020/12/02 05:16:11;;;;;;;;;31.33;31.33;;;;;2.81;70.40;102446.38;4340438;32;8905;-84
2020/12/02 05:19:20;;;;;;;;;36.00;31.67;;;;;2.88;69.78;102449.84;4348889;33;8901;-84
2020/12/02 05:21:49;;;;;;;;;38.33;33.67;;;;;2.97;69.70;102455.78;4346305;33;9046;-86
2020/12/02 05:24:19;;;;;;;;;36.67;34.67;;;;;2.80;69.61;102450.19;4374630;32;8932;-86
2020/12/02 05:27:13;;;;;;;;;84.67;68.33;;;;;2.60;70.44;102450.50;4363974;32;8906;-87
2020/12/02 05:30:15;;;;;;;;;47.67;43.33;;;;;2.55;70.65;102449.56;4353414;32;9539;-86
2020/12/02 05:33:11;;;;;;;;;36.33;34.67;;;;;2.56;70.93;102456.69;4363659;32;8915;-87
2020/12/02 05:36:32;;;;;;;;;34.33;33.33;;;;;2.38;71.38;102463.91;4357604;32;8950;-88
2020/12/02 05:39:17;;;;;;;;;53.33;47.67;;;;;2.46;71.28;102465.47;4385969;32;8959;-86
2020/12/02 05:42:10;;;;;;;;;36.67;33.00;;;;;2.28;71.53;102471.78;4369008;32;8936;-86
2020/12/02 05:44:42;;;;;;;;;43.33;42.33;;;;;2.51;71.87;102469.12;4373512;32;9593;-86
2020/12/02 05:47:20;;;;;;;;;47.67;45.00;;;;;2.70;71.41;102472.62;4357057;32;8976;-77
2020/12/02 05:50:18;;;;;;;;;46.00;43.00;;;;;2.72;71.65;102475.13;4373037;32;8903;-77
2020/12/02 05:52:56;;;;;;;;;35.00;35.00;;;;;2.70;71.53;102485.47;4348645;32;8882;-77
2020/12/02 05:55:38;;;;;;;;;32.33;32.33;;;;;2.63;71.45;102487.47;4373346;32;8871;-77
2020/12/02 05:58:13;;;;;;;;;46.67;42.67;;;;;2.51;71.44;102493.72;4374116;32;8914;-77
2020/12/02 06:01:13;;;;;;;;;53.00;46.00;;;;;2.54;71.46;102492.44;4362389;32;9023;-77
2020/12/02 06:03:41;;;;;;;;;42.00;39.33;;;;;2.65;71.07;102493.53;4373881;32;8956;-77
2020/12/02 06:06:36;;;;;;;;;42.33;38.00;;;;;2.73;70.56;102490.44;4372918;32;8911;-77
2020/12/02 06:09:42;;;;;;;;;28.00;24.00;;;;;2.77;70.34;102491.66;4362496;32;8935;-77
2020/12/02 06:12:17;;;;;;;;;32.33;32.00;;;;;2.78;70.63;102488.69;4374520;32;8926;-77
2020/12/02 06:14:48;;;;;;;;;39.67;39.67;;;;;2.84;70.66;102495.13;4373868;32;8933;-77
2020/12/02 06:17:45;;;;;;;;;35.00;35.00;;;;;2.78;70.15;102491.41;4371655;32;8907;-77
2020/12/02 06:20:14;;;;;;;;;45.00;39.33;;;;;2.74;69.67;102492.94;4359787;32;8913;-77
2020/12/02 06:23:10;;;;;;;;;42.00;37.67;;;;;2.82;69.89;102493.66;4372723;32;8919;-77
2020/12/02 06:26:06;;;;;;;;;50.00;44.33;;;;;2.80;69.90;102502.09;4372270;32;8985;-77
2020/12/02 06:29:03;;;;;;;;;43.67;36.33;;;;;2.61;70.53;102498.63;4372145;32;8908;-77
2020/12/02 06:32:11;;;;;;;;;40.67;37.67;;;;;2.81;69.74;102494.75;4371971;32;8911;-76
2020/12/02 06:35:15;;;;;;;;;41.33;37.67;;;;;2.75;70.02;102500.06;4359212;32;8995;-78
2020/12/02 06:38:20;;;;;;;;;48.33;42.67;;;;;2.77;70.29;102497.13;4361567;32;8899;-76
2020/12/02 06:41:27;;;;;;;;;52.00;46.33;;;;;2.62;70.70;102499.47;4365356;32;9610;-76
2020/12/02 06:44:02;;;;;;;;;58.33;48.33;;;;;2.49;71.14;102492.28;4376695;32;8894;-77
2020/12/02 06:47:07;;;;;;;;;53.33;47.00;;;;;2.71;70.85;102507.09;4365012;32;8902;-76
2020/12/02 06:50:11;;;;;;;;;50.67;46.00;;;;;2.37;71.05;102511.34;4375303;32;9579;-77
2020/12/02 06:53:25;;;;;;;;;55.67;50.33;;;;;2.76;70.34;102517.28;4365371;32;8938;-77
2020/12/02 06:56:15;;;;;;;;;38.33;38.33;;;;;2.78;70.27;102517.91;4375477;32;8894;-77
2020/12/02 06:59:01;;;;;;;;;43.00;38.00;;;;;2.94;69.39;102524.59;4375725;32;8960;-78
2020/12/02 07:02:10;;;;;;;;;36.00;32.00;;;;;2.87;69.87;102524.69;4375032;32;9089;-76
2020/12/02 07:05:19;;;;;;;;;34.67;32.33;;;;;2.86;69.45;102530.41;4374669;32;8915;-77
2020/12/02 07:08:27;;;;;;;;;39.00;34.33;;;;;2.91;69.38;102520.41;4374895;32;8907;-77
2020/12/02 07:11:23;;;;;;;;;45.00;37.67;;;;;2.91;69.46;102517.69;4374668;32;9025;-77
2020/12/02 07:14:21;;;;;;;;;34.33;30.00;;;;;3.05;69.75;102507.38;4375301;32;8908;-77
2020/12/02 07:16:57;;;;;;;;;36.33;31.33;;;;;3.05;69.19;102510.09;4375300;32;8894;-76
2020/12/02 07:19:53;;;;;;;;;38.33;38.33;;;;;3.06;69.27;102514.50;4364282;32;8980;-75
2020/12/02 07:22:34;;;;;;;;;42.67;42.00;;;;;2.98;69.78;102512.13;4362590;32;8906;-77
2020/12/02 07:25:07;;;;;;;;;55.67;46.67;;;;;2.89;70.12;102529.94;4362273;32;8933;-77
2020/12/02 07:27:45;;;;;;;;;37.33;35.67;;;;;2.95;70.44;102521.63;4375190;32;8910;-77
2020/12/02 07:30:41;;;;;;;;;41.00;40.67;;;;;2.79;70.56;102527.78;4374435;32;8929;-77
2020/12/02 07:33:41;;;;;;;;;57.67;47.33;;;;;2.93;70.25;102531.97;4374201;32;8961;-78
2020/12/02 07:36:15;;;;;;;;;49.00;45.33;;;;;2.90;70.25;102529.69;4361990;32;8886;-76
2020/12/02 07:39:13;;;;;;;;;45.33;38.67;;;;;3.05;69.79;102530.06;4376404;32;8906;-77
2020/12/02 07:42:12;;;;;;;;;42.00;36.33;;;;;3.07;69.56;102532.59;4349567;32;9527;-77
2020/12/02 07:45:13;;;;;;;;;42.33;40.33;;;;;3.02;70.11;102532.44;4375084;32;9576;-78
2020/12/02 07:47:58;;;;;;;;;61.00;52.00;;;;;2.96;70.00;102539.69;4374979;32;8890;-77
2020/12/02 07:50:34;;;;;;;;;40.67;38.33;;;;;3.06;70.11;102531.72;4374328;32;9024;-77
2020/12/02 07:53:10;;;;;;;;;38.33;36.67;;;;;3.01;69.56;102542.56;4375165;32;9007;-77
2020/12/02 07:55:44;;;;;;;;;31.33;29.33;;;;;3.12;69.02;102535.44;4374488;32;8952;-77
2020/12/02 07:58:15;;;;;;;;;40.33;35.00;;;;;3.23;68.51;102542.00;4375012;32;8902;-77
2020/12/02 08:01:35;;;;;;;;;37.67;36.00;;;;;2.71;69.76;102536.31;4374210;32;8923;-77
2020/12/02 08:04:52;;;;;;;;;59.33;52.00;;;;;3.08;69.53;102539.72;4373893;32;9006;-77
2020/12/02 08:07:57;;;;;;;;;79.67;59.00;;;;;2.83;70.35;102539.06;4374985;32;9540;-76
2020/12/02 08:10:29;;;;;;;;;55.33;47.67;;;;;2.68;70.50;102551.25;4361767;32;8890;-76
2020/12/02 08:13:25;;;;;;;;;65.33;54.33;;;;;2.75;70.54;102553.88;4363512;32;8900;-76
2020/12/02 08:16:24;;;;;;;;;76.00;61.67;;;;;2.86;70.10;102553.09;4375229;32;8910;-76
2020/12/02 08:19:10;;;;;;;;;61.67;50.00;;;;;2.81;70.52;102558.44;4375480;32;8913;-77
2020/12/02 08:21:56;;;;;;;;;62.33;50.33;;;;;2.91;70.41;102547.75;4376016;32;9577;-75
2020/12/02 08:24:43;;;;;;;;;66.67;56.00;;;;;2.58;70.91;102541.97;4375517;32;8886;-77
2020/12/02 08:27:14;;;;;;;;;62.33;51.33;;;;;2.67;70.82;102538.66;4361835;32;8972;-77
2020/12/02 08:30:16;;;;;;;;;69.00;55.67;;;;;2.69;70.99;102538.44;4373582;32;8965;-75
2020/12/02 08:33:08;;;;;;;;;77.33;59.00;;;;;2.89;70.49;102521.72;4370898;32;8892;-75
2020/12/02 08:36:08;;;;;;;;;79.67;59.00;;;;;2.75;70.72;102526.56;4374158;32;9077;-76
2020/12/02 08:38:52;;;;;;;;;63.33;50.33;;;;;2.77;70.95;102517.09;4359116;32;8884;-74
2020/12/02 08:41:19;;;;;;;;;46.33;43.00;;;;;2.77;70.66;102519.00;4346501;33;8966;-76
2020/12/02 08:44:16;;;;;;;;;46.33;43.00;;;;;2.71;70.50;102507.09;4358981;32;8909;-74
2020/12/02 08:47:16;;;;;;;;;37.67;37.67;;;;;2.86;70.42;102506.62;4360385;32;8876;-74
2020/12/02 08:49:58;;;;;;;;;36.33;36.33;;;;;3.11;70.04;102502.88;4363369;32;8892;-74
2020/12/02 08:52:56;;;;;;;;;36.67;33.00;;;;;2.92;70.49;102500.25;4348667;33;9040;-74
2020/12/02 08:55:52;;;;;;;;;42.33;40.00;;;;;2.94;70.30;102503.56;4366769;32;8987;-74
2020/12/02 08:58:32;;;;;;;;;43.00;37.33;;;;;3.27;69.53;102510.34;4359399;32;8904;-74
2020/12/02 09:01:28;;;;;;;;;32.33;32.33;;;;;3.08;68.95;102506.09;4358140;32;8978;-74
2020/12/02 09:04:25;;;;;;;;;34.67;33.33;;;;;3.18;68.25;102504.41;4361561;32;8933;-74
2020/12/02 09:07:20;;;;;;;;;44.67;41.67;;;;;3.32;68.69;102496.81;4367775;32;8968;-74
2020/12/02 09:10:17;;;;;;;;;40.00;39.33;;;;;3.19;68.98;102488.84;4370233;32;8890;-75
2020/12/02 09:13:14;;;;;;;;;43.67;40.67;;;;;3.37;68.47;102496.91;4372555;32;9582;-74
2020/12/02 09:15:46;;;;;;;;;31.00;28.67;;;;;3.30;69.12;102493.50;4373921;32;8936;-75
2020/12/02 09:18:14;;;;;;;;;37.33;34.67;;;;;2.74;69.94;102494.84;4374050;32;8952;-74
2020/12/02 09:21:12;;;;;;;;;45.00;43.33;;;;;2.67;70.08;102497.69;4368643;32;8886;-75
2020/12/02 09:23:44;;;;;;;;;49.00;42.00;;;;;3.05;69.75;102494.53;4368703;32;8953;-75
2020/12/02 09:26:16;;;;;;;;;31.33;31.33;;;;;3.21;69.57;102503.09;4374011;32;8999;-75
2020/12/02 09:29:15;;;;;;;;;40.33;39.67;;;;;3.33;68.69;102498.47;4370743;32;8957;-75
2020/12/02 09:32:11;;;;;;;;;31.00;31.00;;;;;3.37;68.21;102499.66;4349575;32;9527;-74
2020/12/02 09:34:53;;;;;;;;;37.00;36.33;;;;;3.33;68.42;102493.81;4365847;32;8951;-75
2020/12/02 09:37:35;;;;;;;;;36.00;31.33;;;;;3.34;68.23;102487.28;4369220;32;8900;-75
2020/12/02 09:40:11;;;;;;;;;37.33;37.33;;;;;3.33;68.31;102495.75;4358711;32;8900;-75
2020/12/02 09:43:00;;;;;;;;;30.33;30.33;;;;;3.25;68.28;102496.94;4347360;32;8889;-75
2020/12/02 09:46:04;;;;;;;;;47.00;42.00;;;;;3.17;67.84;102501.91;4358503;32;8896;-74
2020/12/02 09:49:00;;;;;;;;;28.00;28.00;;;;;3.30;68.13;102501.69;4367059;32;9606;-73
2020/12/02 09:51:30;;;;;;;;;27.00;25.67;;;;;2.93;68.58;102501.91;4361000;32;8906;-75
2020/12/02 09:54:27;;;;;;;;;30.33;28.67;;;;;3.09;68.76;102507.75;4362873;32;9009;-74
2020/12/02 09:57:19;;;;;;;;;37.33;35.00;;;;;3.03;68.93;102499.41;4373072;32;8890;-75
2020/12/02 10:00:17;;;;;;;;;46.33;42.33;;;;;3.22;68.67;102507.50;4372180;32;8918;-75
2020/12/02 10:03:13;;;;;;;;;36.33;33.33;;;;;3.12;68.80;102501.78;4373291;32;8902;-75
2020/12/02 10:05:49;;;;;;;;;32.33;31.00;;;;;3.12;69.13;102499.06;4373496;32;8921;-75
2020/12/02 10:09:07;;;;;;;;;41.67;41.67;;;;;3.42;68.31;102515.34;4366375;32;8901;-75
2020/12/02 10:12:44;;;;;;;;;50.00;45.33;;;;;3.30;68.27;102498.97;4358743;32;8940;-75
2020/12/02 10:15:54;;;;;;;;;52.33;44.33;;;;;3.49;68.45;102495.00;4358229;32;8927;-75
2020/12/02 10:18:53;;;;;;;;;31.67;28.67;;;;;3.34;68.41;102498.22;4347714;32;9712;-75
2020/12/02 10:22:12;;;;;;;;;47.00;41.00;;;;;3.50;67.85;102493.09;4357121;32;8909;-75
2020/12/02 10:25:48;;;;;;;;;55.67;46.67;;;;;3.26;67.92;102486.81;4357509;32;8937;-74
2020/12/02 10:29:27;;;;;;;;;45.33;39.33;;;;;3.33;68.08;102490.25;4334136;33;8902;-75
2020/12/02 10:32:49;;;;;;;;;32.33;30.67;;;;;3.18;68.47;102484.44;4340776;33;8897;-75
2020/12/02 10:35:27;;;;;;;;;34.00;30.00;;;;;3.30;68.04;102488.84;4359584;32;8922;-75
2020/12/02 10:37:59;;;;;;;;;77.67;59.00;;;;;3.34;67.53;102487.28;4364828;32;8904;-74
2020/12/02 10:41:03;;;;;;;;;39.67;36.33;;;;;3.36;67.87;102497.97;4357042;33;8983;-75
2020/12/02 10:44:05;;;;;;;;;50.00;44.33;;;;;3.07;68.48;102486.12;4364804;32;8937;-73
2020/12/02 10:47:05;;;;;;;;;36.67;35.00;;;;;3.14;68.17;102485.97;4368611;32;8923;-74
2020/12/02 10:49:46;;;;;;;;;34.33;33.33;;;;;2.99;68.43;102484.56;4358775;33;8888;-75
2020/12/02 10:52:45;;;;;;;;;55.33;48.00;;;;;3.21;68.18;102481.22;4347406;33;8949;-75
2020/12/02 10:55:16;;;;;;;;;54.33;45.33;;;;;3.37;67.88;102472.28;4357770;33;8876;-74
2020/12/02 10:58:00;;;;;;;;;36.00;35.33;;;;;3.14;68.27;102464.09;4358489;32;8900;-74
2020/12/02 11:00:33;;;;;;;;;34.33;34.33;;;;;3.13;68.14;102468.75;4358292;32;8912;-73
2020/12/02 11:03:25;;;;;;;;;33.33;31.33;;;;;2.85;68.55;102468.62;4369899;32;12472;-74
2020/12/02 11:06:41;;;;;;;;;34.00;33.67;;;;;2.95;68.75;102463.41;4372482;32;9531;-75
2020/12/02 11:09:28;;;;;;;;;25.00;21.67;;;;;2.89;68.79;102473.38;4359123;32;9649;-75
2020/12/02 11:12:41;;;;;;;;;44.67;42.67;;;;;2.92;69.02;102466.63;4362902;32;8910;-77
2020/12/02 11:15:57;;;;;;;;;42.33;42.33;;;;;3.09;68.70;102481.22;4372465;32;8915;-77
2020/12/02 11:19:21;;;;;;;;;35.33;34.33;;;;;3.15;68.49;102472.09;4371291;32;8916;-77
2020/12/02 11:21:59;;;;;;;;;61.00;51.67;;;;;3.40;68.07;102474.56;4373020;32;8898;-76
2020/12/02 11:25:21;;;;;;;;;45.00;39.67;;;;;3.15;68.52;102479.47;4362969;32;9073;-77
2020/12/02 11:28:17;;;;;;;;;43.00;41.33;;;;;3.15;68.58;102493.97;4374554;32;8904;-77
2020/12/02 11:30:46;;;;;;;;;52.00;46.00;;;;;3.39;67.39;102481.09;4362589;32;8956;-75
2020/12/02 11:33:57;;;;;;;;;44.00;41.33;;;;;2.98;68.58;102480.13;4374592;32;9036;-75
2020/12/02 11:37:01;;;;;;;;;29.33;29.33;;;;;3.05;68.35;102483.59;4366982;32;8961;-76
2020/12/02 11:40:07;;;;;;;;;49.00;41.00;;;;;3.23;68.18;102479.09;4365861;32;8888;-76
2020/12/02 11:43:14;;;;;;;;;18.33;18.33;;;;;3.44;68.35;102472.16;4374392;32;9506;-77
2020/12/02 11:45:52;;;;;;;;;32.00;32.00;;;;;3.61;67.78;102468.47;4374754;32;12369;-77
2020/12/02 11:49:10;;;;;;;;;22.00;21.50;;;;;3.64;67.19;102467.16;4360651;32;12363;-77
2020/12/02 11:51:57;;;;;;;;;29.75;29.75;;;;;3.57;67.44;102464.53;4374957;32;12347;-77
2020/12/02 11:54:55;;;;;;;;;37.00;35.67;;;;;3.41;67.96;102462.56;4374490;32;12488;-76
2020/12/02 11:57:23;;;;;;;;;31.33;31.33;;;;;3.15;68.24;102474.81;4375177;32;12368;-76
2020/12/02 12:00:19;;;;;;;;;32.75;32.25;;;;;3.37;68.00;102475.03;4361711;32;12586;-77
2020/12/02 12:03:29;;;;;;;;;39.00;37.67;;;;;3.54;67.64;102466.94;4374128;32;12353;-77
2020/12/02 12:06:08;;;;;;;;;45.00;42.67;;;;;3.67;67.69;102460.34;4375667;32;9028;-76
2020/12/02 12:08:55;;;;;;;;;53.33;46.33;;;;;3.46;67.90;102459.09;4359858;32;8930;-76
2020/12/02 12:11:38;;;;;;;;;47.67;45.00;;;;;3.49;68.04;102450.41;4365289;32;8945;-77
2020/12/02 12:14:57;;;;;;;;;48.67;46.00;;;;;3.60;68.21;102457.75;4360855;32;9036;-77
2020/12/02 12:17:54;;;;;;;;;40.00;40.00;;;;;3.52;68.00;102453.47;4359323;32;8975;-77
2020/12/02 12:20:57;;;;;;;;;41.00;39.00;;;;;3.44;68.54;102463.97;4358534;32;8909;-76
2020/12/02 12:23:51;;;;;;;;;33.67;31.00;;;;;3.47;68.27;102456.13;4359132;32;8923;-76
2020/12/02 12:26:51;;;;;;;;;42.67;42.00;;;;;3.27;68.63;102455.66;4357062;32;9033;-77
2020/12/02 12:29:49;;;;;;;;;48.67;43.00;;;;;3.31;68.49;102463.16;4373640;32;8903;-77
2020/12/02 12:33:02;;;;;;;;;35.67;31.00;;;;;3.41;68.14;102470.75;4374107;32;8895;-76
2020/12/02 12:36:05;;;;;;;;;29.33;29.33;;;;;3.41;68.24;102478.13;4369649;32;9579;-76
2020/12/02 12:39:04;;;;;;;;;35.33;33.67;;;;;3.49;67.62;102475.84;4367261;32;12357;-75
2020/12/02 12:42:01;;;;;;;;;38.00;34.67;;;;;3.60;67.71;102483.22;4348580;32;12360;-76
2020/12/02 12:45:02;;;;;;;;;23.33;19.00;;;;;3.80;67.46;102479.25;4357967;32;8968;-76
2020/12/02 12:47:33;;;;;;;;;62.67;51.00;;;;;3.86;67.39;102479.12;4359713;32;8911;-76
2020/12/02 12:50:05;;;;;;;;;58.00;51.00;;;;;3.58;68.08;102490.00;4369211;32;8968;-77
2020/12/02 12:53:06;;;;;;;;;43.33;42.00;;;;;3.60;68.00;102491.44;4372787;32;8992;-77
2020/12/02 12:55:34;;;;;;;;;45.00;42.33;;;;;3.51;67.87;102490.13;4354335;32;8912;-77
2020/12/02 12:58:10;;;;;;;;;36.00;35.67;;;;;3.50;67.99;102491.19;4366103;32;8929;-78
2020/12/02 13:00:41;;;;;;;;;41.67;41.00;;;;;3.55;67.71;102477.63;4371291;32;8885;-76
2020/12/02 13:03:27;;;;;;;;;32.33;32.33;;;;;3.44;68.35;102483.09;4358104;32;8945;-79
2020/12/02 13:06:10;;;;;;;;;47.33;43.00;;;;;3.27;67.76;102475.62;4373955;32;8914;-80
2020/12/02 13:09:36;;;;;;;;;31.67;31.00;;;;;3.24;67.56;102487.06;4372746;32;8961;-81
2020/12/02 13:12:40;;;;;;;;;25.67;25.67;;;;;3.61;66.29;102490.38;4362711;32;8911;-80
2020/12/02 13:16:14;;;;;;;;;26.00;24.33;;;;;3.25;67.12;102491.47;4372916;32;8935;-79
2020/12/02 13:19:30;;;;;;;;;32.33;32.33;;;;;3.41;67.23;102492.62;4360677;32;12431;-80
2020/12/02 13:22:41;;;;;;;;;18.00;18.00;;;;;3.12;67.43;102488.13;4365360;32;9296;-79
2020/12/02 13:25:43;;;;;;;;;33.00;33.00;;;;;3.24;67.16;102487.06;4361084;32;8893;-80